Time;durP1;ratioP1;P1;durP2;ratioP2;P2;SDS_P1;SDS_P2;PMS_P1;PMS_P2;Temp;Humidity;BMP_temperature;BMP_pressure;BME280_temperature;BME280_humidity;BME280_pressure;Samples;Min_cycle;Max_cycle;Signal;HPM_P1;HPM_P2
2023/08/19 00:01:28;;;;;;;2.10;1.50;;;;;;;15.18;100.00;102788.88;5094122;28;20105;-66
2023/08/19 00:03:54;;;;;;;1.97;1.50;;;;;;;15.17;100.00;102785.34;5094176;28;20063;-66
2023/08/19 00:06:40;;;;;;;6.33;1.50;;;;;;;15.19;100.00;102783.34;5093975;28;20052;-65
2023/08/19 00:09:09;;;;;;;2.70;1.47;;;;;;;15.17;100.00;102777.28;5094080;28;20036;-67
2023/08/19 00:11:39;;;;;;;2.10;1.30;;;;;;;14.88;100.00;102729.03;5094001;28;20470;-68
2023/08/19 00:14:05;;;;;;;2.73;1.50;;;;;;;15.12;100.00;102763.47;5097446;28;20105;-67
2023/08/19 00:16:32;;;;;;;3.27;1.93;;;;;;;15.14;100.00;102764.16;5097771;28;20034;-65
2023/08/19 00:18:57;;;;;;;2.87;1.90;;;;;;;15.10;100.00;102770.81;5097837;28;20069;-67
2023/08/19 00:21:22;;;;;;;2.00;1.43;;;;;;;15.14;100.00;102777.56;5098248;28;20024;-67
2023/08/19 00:23:48;;;;;;;4.70;2.23;;;;;;;15.01;100.00;102758.22;5096130;28;20727;-65
2023/08/19 00:26:14;;;;;;;1.83;1.33;;;;;;;15.13;100.00;102770.53;5093915;28;20375;-65
2023/08/19 00:28:40;;;;;;;2.73;1.33;;;;;;;15.09;100.00;102752.16;5093962;28;20055;-66
2023/08/19 00:31:07;;;;;;;2.37;1.43;;;;;;;15.04;100.00;102744.56;5094023;28;20398;-67
2023/08/19 00:33:32;;;;;;;2.67;2.00;;;;;;;15.08;100.00;102762.06;5093646;28;20144;-65
2023/08/19 00:35:59;;;;;;;2.20;1.53;;;;;;;15.07;100.00;102764.88;5093721;28;20048;-67
2023/08/19 00:38:24;;;;;;;2.47;1.20;;;;;;;15.05;100.00;102751.63;5093663;28;20073;-66
2023/08/19 00:40:50;;;;;;;2.10;1.63;;;;;;;14.81;100.00;102716.34;5093870;28;20367;-67
2023/08/19 00:43:15;;;;;;;2.73;1.53;;;;;;;15.08;100.00;102762.06;5093637;28;20024;-65
2023/08/19 00:45:45;;;;;;;2.80;2.00;;;;;;;14.98;100.00;102747.78;5093514;28;20503;-65
2023/08/19 00:48:16;;;;;;;2.43;2.23;;;;;;;14.95;100.00;102739.19;5093439;28;20107;-66
2023/08/19 00:50:42;;;;;;;1.50;1.40;;;;;;;15.01;100.00;102742.13;5093524;28;20379;-66
2023/08/19 00:53:08;;;;;;;1.93;1.60;;;;;;;14.95;100.00;102728.44;5093324;28;20040;-68
2023/08/19 00:55:35;;;;;;;3.07;1.73;;;;;;;15.02;100.00;102735.78;5092920;28;20043;-69
2023/08/19 00:58:03;;;;;;;3.13;1.30;;;;;;;14.91;100.00;102719.00;5093302;28;20020;-66
2023/08/19 01:00:32;;;;;;;3.67;1.42;;;;;;;14.84;100.00;102721.41;5092324;28;20036;-67
2023/08/19 01:02:58;;;;;;;3.23;1.70;;;;;;;14.79;100.00;102727.22;5091628;28;20059;-67
2023/08/19 01:05:40;;;;;;;2.83;1.50;;;;;;;14.73;100.00;102725.06;5092290;28;20023;-67
2023/08/19 01:08:11;;;;;;;2.57;1.40;;;;;;;14.59;100.00;102713.94;5093036;28;20131;-65
2023/08/19 01:10:42;;;;;;;1.77;1.67;;;;;;;14.51;100.00;102712.81;5092026;28;20472;-68
2023/08/19 01:13:13;;;;;;;2.20;2.00;;;;;;;14.60;100.00;102739.78;5093161;28;20085;-67
2023/08/19 01:15:54;;;;;;;2.20;1.30;;;;;;;14.58;100.00;102737.22;5076781;28;20044;-67
2023/08/19 01:18:21;;;;;;;2.37;1.73;;;;;;;14.46;100.00;102723.13;5095100;28;20031;-64
2023/08/19 01:20:48;;;;;;;5.33;2.33;;;;;;;14.51;100.00;102742.31;5092694;28;20036;-65
2023/08/19 01:23:23;;;;;;;2.27;2.03;;;;;;;14.48;100.00;102737.25;5092782;28;20067;-68
2023/08/19 01:25:49;;;;;;;6.63;2.37;;;;;;;14.39;100.00;102737.19;5092482;28;20067;-66
2023/08/19 01:28:14;;;;;;;3.53;2.33;;;;;;;14.36;100.00;102740.97;5092569;28;20120;-67
2023/08/19 01:30:40;;;;;;;4.77;1.77;;;;;;;14.34;100.00;102724.19;5091526;28;20039;-64
2023/08/19 01:33:05;;;;;;;3.07;1.50;;;;;;;14.26;100.00;102711.50;5092361;28;20028;-65
2023/08/19 01:35:36;;;;;;;3.33;1.70;;;;;;;14.31;100.00;102719.13;5092277;28;20028;-67
2023/08/19 01:38:14;;;;;;;2.17;1.70;;;;;;;14.38;100.00;102720.25;5092727;28;20032;-68
2023/08/19 01:40:41;;;;;;;4.67;1.40;;;;;;;14.38;100.00;102717.56;5091264;28;20016;-67
2023/08/19 01:43:10;;;;;;;2.47;1.77;;;;;;;14.43;100.00;102726.06;5092561;28;20105;-68
2023/08/19 01:45:36;;;;;;;2.37;1.47;;;;;;;14.44;100.00;102730.44;5092360;28;20394;-67
2023/08/19 01:48:02;;;;;;;2.70;1.63;;;;;;;14.31;100.00;102708.41;5091221;28;20056;-67
2023/08/19 01:50:28;;;;;;;3.50;2.03;;;;;;;14.42;100.00;102720.81;5092681;28;20468;-67
2023/08/19 01:52:53;;;;;;;2.60;1.70;;;;;;;14.41;100.00;102719.97;5090953;28;20039;-65
2023/08/19 01:55:19;;;;;;;1.83;1.67;;;;;;;14.45;100.00;102725.91;5091049;28;20118;-66
2023/08/19 01:57:44;;;;;;;2.93;1.70;;;;;;;14.43;100.00;102728.75;5092280;28;20032;-68
2023/08/19 02:00:10;;;;;;;1.97;1.77;;;;;;;14.29;100.00;102710.38;5092117;28;20051;-65
2023/08/19 02:02:36;;;;;;;2.40;1.77;;;;;;;14.42;100.00;102737.75;5092234;28;20032;-65
2023/08/19 02:05:02;;;;;;;2.50;1.90;;;;;;;14.32;100.00;102717.28;5090919;28;20017;-64
2023/08/19 02:07:28;;;;;;;2.90;1.47;;;;;;;14.44;100.00;102729.59;5090816;28;20079;-65
2023/08/19 02:09:53;;;;;;;5.23;1.87;;;;;;;14.14;100.00;102675.06;5092059;28;20064;-66
2023/08/19 02:12:19;;;;;;;4.23;1.77;;;;;;;14.37;100.00;102710.50;5093448;28;20055;-66
2023/08/19 02:14:44;;;;;;;4.20;1.83;;;;;;;14.37;100.00;102721.22;5096133;28;20020;-65
2023/08/19 02:17:10;;;;;;;2.63;2.10;;;;;;;14.37;100.00;102726.59;5096173;28;20093;-65
2023/08/19 02:19:35;;;;;;;4.17;1.90;;;;;;;14.32;100.00;102715.44;5096236;28;20378;-66
2023/08/19 02:22:02;;;;;;;2.00;1.63;;;;;;;14.31;100.00;102712.91;5095112;28;20471;-66
2023/08/19 02:24:28;;;;;;;5.87;2.13;;;;;;;14.31;100.00;102713.75;5078227;28;20023;-64
2023/08/19 02:26:53;;;;;;;3.13;2.00;;;;;;;14.40;100.00;102726.31;5096139;28;20026;-67
2023/08/19 02:29:19;;;;;;;2.67;1.60;;;;;;;14.30;100.00;102706.69;5096057;28;20036;-68
2023/08/19 02:31:46;;;;;;;2.10;1.73;;;;;;;14.29;100.00;102710.38;5096221;28;20038;-66
2023/08/19 02:34:11;;;;;;;2.17;1.50;;;;;;;14.43;100.00;102730.56;5096027;28;20062;-66
2023/08/19 02:36:37;;;;;;;7.20;1.70;;;;;;;14.44;100.00;102730.44;5094838;28;20027;-67
2023/08/19 02:39:02;;;;;;;2.57;1.80;;;;;;;14.34;100.00;102715.31;5095987;28;20031;-67
2023/08/19 02:41:28;;;;;;;2.90;1.57;;;;;;;14.11;100.00;102667.31;5095804;28;20028;-65
2023/08/19 02:43:53;;;;;;;3.23;1.50;;;;;;;14.29;100.00;102694.28;5094400;28;20024;-65
2023/08/19 02:46:19;;;;;;;2.53;1.70;;;;;;;14.34;100.00;102707.25;5095681;28;20056;-66
2023/08/19 02:48:44;;;;;;;3.47;2.00;;;;;;;14.41;100.00;102711.91;5095654;28;20028;-69
2023/08/19 02:51:10;;;;;;;4.37;1.70;;;;;;;14.41;100.00;102703.03;5095615;28;20057;-67
2023/08/19 02:53:35;;;;;;;3.20;1.60;;;;;;;14.37;100.00;102697.09;5095514;28;20114;-68
2023/08/19 02:56:01;;;;;;;2.93;1.90;;;;;;;14.31;100.00;102686.97;5095255;28;20063;-67
2023/08/19 02:58:27;;;;;;;3.53;2.23;;;;;;;14.43;100.00;102712.66;5095416;28;20039;-68
2023/08/19 03:00:52;;;;;;;2.97;1.97;;;;;;;14.45;100.00;102709.84;5095278;28;20031;-68
2023/08/19 03:03:18;;;;;;;2.47;2.00;;;;;;;14.41;100.00;102703.88;5095648;28;20074;-66
2023/08/19 03:05:43;;;;;;;3.23;1.73;;;;;;;14.41;100.00;102692.31;5095315;28;20093;-66
2023/08/19 03:08:10;;;;;;;4.13;2.23;;;;;;;14.37;100.00;102691.75;5092991;28;20055;-66
2023/08/19 03:10:37;;;;;;;15.07;13.10;;;;;;;14.25;100.00;102666.94;5095276;28;20065;-64
2023/08/19 03:13:07;;;;;;;3.90;2.20;;;;;;;14.52;100.00;102708.31;5095099;28;20036;-67
2023/08/19 03:15:34;;;;;;;2.47;2.00;;;;;;;14.45;100.00;102677.66;5095141;28;20492;-67
2023/08/19 03:17:59;;;;;;;2.30;2.03;;;;;;;14.60;100.00;102695.03;5095267;28;20028;-66
2023/08/19 03:20:25;;;;;;;2.43;1.60;;;;;;;14.61;100.00;102698.56;5095083;28;20020;-64
2023/08/19 03:22:50;;;;;;;4.77;1.90;;;;;;;14.62;100.00;102694.88;5095006;28;20024;-66
2023/08/19 03:25:16;;;;;;;2.70;2.03;;;;;;;14.53;100.00;102676.00;5094107;28;20024;-66
2023/08/19 03:27:42;;;;;;;3.00;2.10;;;;;;;14.66;100.00;102685.56;5094990;28;20028;-68
2023/08/19 03:30:08;;;;;;;3.03;2.03;;;;;;;14.68;100.00;102683.59;5094996;28;20032;-64
2023/08/19 03:32:34;;;;;;;2.87;1.80;;;;;;;14.66;100.00;102669.47;5094860;28;20379;-65
2023/08/19 03:34:59;;;;;;;3.13;1.70;;;;;;;14.73;100.00;102678.63;5094913;28;20024;-66
2023/08/19 03:37:25;;;;;;;4.10;1.87;;;;;;;14.73;100.00;102655.34;5093447;28;20520;-67
2023/08/19 03:39:51;;;;;;;4.93;2.20;;;;;;;14.83;100.00;102664.25;5094741;28;20020;-67
2023/08/19 03:42:17;;;;;;;6.03;1.70;;;;;;;14.76;100.00;102641.66;5094747;28;20024;-66
2023/08/19 03:44:43;;;;;;;2.03;1.80;;;;;;;14.80;100.00;102642.22;5094426;28;20404;-66
2023/08/19 03:47:12;;;;;;;2.23;1.90;;;;;;;14.79;100.00;102641.38;5094617;28;20046;-66
2023/08/19 03:49:38;;;;;;;1.90;1.70;;;;;;;14.87;100.00;102646.00;5094543;28;20068;-64
2023/08/19 03:52:08;;;;;;;4.30;2.37;;;;;;;14.86;100.00;102645.16;5094636;28;20047;-65
2023/08/19 03:54:34;;;;;;;4.97;2.93;;;;;;;14.86;100.00;102644.31;5094423;28;20035;-67
2023/08/19 03:56:59;;;;;;;3.47;2.37;;;;;;;14.94;100.00;102657.84;5092811;28;20039;-65
2023/08/19 03:59:25;;;;;;;6.60;1.70;;;;;;;14.98;100.00;102664.59;5094168;28;20032;-67
2023/08/19 04:01:50;;;;;;;3.60;1.67;;;;;;;14.92;100.00;102640.22;5094467;28;20062;-69
2023/08/19 04:04:16;;;;;;;4.27;1.83;;;;;;;15.00;100.00;102649.22;5094250;28;20131;-67
2023/08/19 04:06:42;;;;;;;4.07;2.03;;;;;;;14.99;100.00;102639.47;5094491;28;20047;-67
2023/08/19 04:09:08;;;;;;;3.30;1.43;;;;;;;15.17;100.00;102656.50;5094509;28;20463;-69
2023/08/19 04:11:33;;;;;;;3.73;1.70;;;;;;;15.26;100.00;102645.88;5094110;28;20032;-67
2023/08/19 04:13:59;;;;;;;3.63;2.33;;;;;;;14.78;100.00;102551.19;5094856;28;20028;-67
2023/08/19 04:16:24;;;;;;;4.03;1.90;;;;;;;15.51;100.00;102661.31;5092658;28;20140;-64
2023/08/19 04:18:50;;;;;;;4.47;1.93;;;;;;;15.45;100.00;102651.16;5093915;28;20364;-68
2023/08/19 04:21:17;;;;;;;3.03;1.57;;;;;;;15.64;100.00;102672.59;5093995;28;20035;-66
2023/08/19 04:23:42;;;;;;;1.77;1.60;;;;;;;14.97;100.00;102549.38;5093798;28;20036;-65
2023/08/19 04:26:07;;;;;;;3.03;1.67;;;;;;;15.65;100.00;102658.19;5093569;28;20474;-68
2023/08/19 04:28:33;;;;;;;3.07;1.93;;;;;;;15.71;100.00;102664.78;5093707;28;20102;-66
2023/08/19 04:31:09;;;;;;;2.03;1.43;;;;;;;15.76;100.00;102660.66;5094618;28;20412;-66
2023/08/19 04:33:35;;;;;;;4.57;2.70;;;;;;;15.76;100.00;102652.59;5093986;28;20019;-66
2023/08/19 04:36:02;;;;;;;2.23;1.77;;;;;;;15.73;100.00;102647.53;5092317;28;20032;-66
2023/08/19 04:38:27;;;;;;;1.63;1.50;;;;;;;15.77;100.00;102634.63;5093529;28;20464;-66
2023/08/19 04:40:53;;;;;;;3.80;1.87;;;;;;;15.99;100.00;102661.06;5093336;28;20020;-67
2023/08/19 04:43:19;;;;;;;7.20;2.43;;;;;;;16.01;100.00;102655.53;5093698;28;20032;-63
2023/08/19 04:45:44;;;;;;;4.33;2.40;;;;;;;16.17;100.00;102657.53;5093523;28;20077;-66
2023/08/19 04:48:10;;;;;;;3.23;1.87;;;;;;;16.15;100.00;102651.47;5093613;28;20059;-67
2023/08/19 04:50:36;;;;;;;3.20;2.57;;;;;;;16.17;100.00;102642.25;5093463;28;20447;-66
2023/08/19 04:53:01;;;;;;;3.80;2.30;;;;;;;16.26;100.00;102651.25;5093218;28;20031;-67
2023/08/19 04:55:27;;;;;;;3.00;1.83;;;;;;;16.35;100.00;102647.63;5093666;28;20410;-64
2023/08/19 04:57:53;;;;;;;3.67;1.77;;;;;;;16.30;100.00;102641.88;5093285;28;20038;-66
2023/08/19 05:00:18;;;;;;;4.33;1.83;;;;;;;16.25;100.00;102638.81;5093295;28;20040;-65
2023/08/19 05:02:44;;;;;;;2.00;1.80;;;;;;;16.34;100.00;102638.72;5093091;28;20444;-66
2023/08/19 05:05:09;;;;;;;2.53;1.67;;;;;;;16.48;100.00;102641.84;5093059;28;20057;-66
2023/08/19 05:07:35;;;;;;;2.33;2.03;;;;;;;16.53;100.00;102643.09;5091430;28;20040;-66
2023/08/19 05:10:00;;;;;;;4.17;1.60;;;;;;;16.64;100.00;102650.06;5091481;28;20057;-67
2023/08/19 05:12:26;;;;;;;2.77;1.97;;;;;;;16.77;100.00;102639.78;5093139;28;20020;-66
2023/08/19 05:14:52;;;;;;;7.25;2.28;;;;;;;16.88;100.00;102631.44;5092742;28;20028;-67
2023/08/19 05:17:18;;;;;;;5.05;2.90;;;;;;;16.90;100.00;102624.03;5092700;28;20032;-65
2023/08/19 05:19:44;;;;;;;5.47;2.17;;;;;;;16.93;99.04;102618.34;5092903;28;20020;-65
2023/08/19 05:22:09;;;;;;;2.70;1.90;;;;;;;17.07;98.76;102629.53;5092758;28;20478;-66
2023/08/19 05:24:35;;;;;;;2.70;2.00;;;;;;;17.22;98.49;102636.00;5093158;28;20020;-64
2023/08/19 05:27:01;;;;;;;7.68;2.22;;;;;;;17.36;97.88;102623.78;5093482;28;20024;-65
2023/08/19 05:29:26;;;;;;;5.70;1.60;;;;;;;17.21;96.14;102604.69;5092837;28;20495;-66
2023/08/19 05:31:52;;;;;;;2.60;2.35;;;;;;;17.27;96.50;102615.66;5091345;28;20070;-64
2023/08/19 05:34:17;;;;;;;2.53;1.95;;;;;;;17.39;95.97;102637.78;5092638;28;20024;-66
2023/08/19 05:36:43;;;;;;;2.65;1.60;;;;;;;17.24;96.56;102615.13;5091074;28;20093;-65
2023/08/19 05:39:08;;;;;;;6.25;2.55;;;;;;;17.34;96.23;102630.16;5092209;28;20103;-67
2023/08/19 05:41:34;;;;;;;9.23;2.47;;;;;;;17.40;95.83;102634.06;5091239;28;20020;-67
2023/08/19 05:43:59;;;;;;;4.55;2.13;;;;;;;17.38;95.61;102606.47;5092439;28;20077;-67
2023/08/19 05:46:25;;;;;;;4.70;1.70;;;;;;;17.51;94.84;102616.75;5092061;28;20050;-67
2023/08/19 05:48:50;;;;;;;3.88;1.60;;;;;;;17.47;95.21;102612.72;5090923;28;20024;-66
2023/08/19 05:51:16;;;;;;;5.35;1.90;;;;;;;17.51;95.77;102617.59;5092108;28;20467;-69
2023/08/19 05:53:41;;;;;;;6.90;2.33;;;;;;;17.53;95.55;102615.59;5092216;28;20090;-65
2023/08/19 05:56:07;;;;;;;4.18;1.58;;;;;;;17.54;94.84;102606.50;5092293;28;20546;-66
2023/08/19 05:58:33;;;;;;;5.50;1.45;;;;;;;17.49;94.65;102592.69;5092258;28;20437;-67
2023/08/19 06:01:00;;;;;;;4.38;2.33;;;;;;;17.49;94.12;102587.28;5092154;28;20082;-67
2023/08/19 06:03:26;;;;;;;9.07;2.28;;;;;;;17.63;93.87;102600.13;5090864;28;20153;-66
2023/08/19 06:05:51;;;;;;;2.88;1.63;;;;;;;17.61;93.77;102580.56;5092341;28;20036;-66
2023/08/19 06:08:20;;;;;;;3.95;2.17;;;;;;;17.83;92.86;102592.63;5092314;28;20052;-66
2023/08/19 06:10:45;;;;;;;3.67;1.45;;;;;;;17.96;92.62;102584.06;5090751;28;20028;-66
2023/08/19 06:13:12;;;;;;;3.25;2.65;;;;;;;17.91;91.89;102586.38;5094337;28;20054;-67
2023/08/19 06:15:37;;;;;;;3.95;1.73;;;;;;;17.90;92.64;102582.00;5096189;28;20058;-68
2023/08/19 06:18:03;;;;;;;1.45;1.27;;;;;;;18.13;92.12;102590.28;5096524;28;20028;-67
2023/08/19 06:20:28;;;;;;;2.22;1.20;;;;;;;18.17;91.19;102576.31;5096114;28;20036;-67
2023/08/19 06:22:54;;;;;;;3.05;1.98;;;;;;;18.11;91.20;102576.97;5090767;28;20111;-67
2023/08/19 06:25:20;;;;;;;3.38;1.23;;;;;;;18.01;91.84;102548.50;5091002;28;20032;-66
2023/08/19 06:27:45;;;;;;;3.42;1.60;;;;;;;18.17;90.62;102570.91;5092268;28;20485;-67
2023/08/19 06:30:12;;;;;;;3.47;1.30;;;;;;;18.17;90.52;102567.38;5092092;28;20498;-66
2023/08/19 06:32:38;;;;;;;4.88;1.13;;;;;;;17.95;91.05;102545.47;5092167;28;20032;-67
2023/08/19 06:35:04;;;;;;;5.00;3.05;;;;;;;18.00;90.62;102547.66;5092469;28;20142;-66
2023/08/19 06:37:33;;;;;;;2.75;1.75;;;;;;;17.74;91.61;102518.16;5091617;28;20463;-66
2023/08/19 06:40:06;;;;;;;5.57;2.28;;;;;;;17.71;91.73;102504.19;5092125;28;20039;-66
2023/08/19 06:42:34;;;;;;;5.07;1.48;;;;;;;17.78;92.81;102527.59;5091946;28;20028;-65
2023/08/19 06:45:00;;;;;;;3.47;1.80;;;;;;;17.79;93.86;102550.00;5090413;28;20020;-67
2023/08/19 06:47:31;;;;;;;4.50;1.48;;;;;;;17.77;94.95;102543.94;5090563;28;20379;-65
2023/08/19 06:49:57;;;;;;;6.05;1.60;;;;;;;17.73;95.48;102540.75;5091497;28;20028;-66
2023/08/19 06:52:24;;;;;;;2.85;1.92;;;;;;;17.62;97.60;102538.31;5091663;28;20093;-67
2023/08/19 06:54:50;;;;;;;3.87;1.50;;;;;;;17.41;98.60;102530.72;5091738;28;20038;-70
2023/08/19 06:57:24;;;;;;;3.38;1.95;;;;;;;17.21;100.00;102524.75;5091723;28;20036;-67
2023/08/19 06:59:55;;;;;;;2.70;1.92;;;;;;;17.16;100.00;102521.72;5093698;28;20048;-66
2023/08/19 07:02:22;;;;;;;3.90;1.60;;;;;;;17.17;100.00;102533.31;5095288;28;20072;-67
2023/08/19 07:04:49;;;;;;;2.78;1.63;;;;;;;17.13;100.00;102531.97;5095466;28;20109;-68
2023/08/19 07:07:21;;;;;;;2.33;1.55;;;;;;;16.86;100.00;102481.91;5096113;28;20080;-66
2023/08/19 07:09:47;;;;;;;2.67;1.52;;;;;;;17.12;100.00;102514.13;5095869;28;20086;-69
2023/08/19 07:12:13;;;;;;;4.15;1.65;;;;;;;17.19;100.00;102532.16;5094956;28;20036;-67
2023/08/19 07:14:40;;;;;;;6.28;1.83;;;;;;;17.11;100.00;102526.75;5094942;28;20016;-63
2023/08/19 07:17:06;;;;;;;4.90;1.80;;;;;;;17.05;100.00;102522.00;5094758;28;20097;-67
2023/08/19 07:19:38;;;;;;;4.97;1.95;;;;;;;17.21;100.00;102540.06;5095395;28;20111;-67
2023/08/19 07:22:04;;;;;;;4.18;1.45;;;;;;;17.39;100.00;102540.81;5095355;28;20055;-66
2023/08/19 07:24:31;;;;;;;3.40;1.70;;;;;;;17.55;100.00;102559.69;5093368;28;20126;-66
2023/08/19 07:27:01;;;;;;;4.43;1.77;;;;;;;17.48;100.00;102555.97;5095253;28;20048;-66
2023/08/19 07:29:27;;;;;;;6.38;1.73;;;;;;;17.56;100.00;102555.97;5093830;28;20023;-67
2023/08/19 07:31:53;;;;;;;5.68;3.28;;;;;;;17.75;100.00;102570.22;5094378;28;20056;-65
2023/08/19 07:34:19;;;;;;;9.95;2.10;;;;;;;17.88;100.00;102576.78;5095156;28;20035;-68
2023/08/19 07:36:46;;;;;;;5.90;2.05;;;;;;;17.94;100.00;102561.81;5094881;28;20035;-64
2023/08/19 07:39:11;;;;;;;6.15;1.60;;;;;;;18.03;98.81;102568.91;5095072;28;20032;-66
2023/08/19 07:41:38;;;;;;;3.92;1.77;;;;;;;18.00;97.91;102544.97;5099565;28;20467;-66
2023/08/19 07:44:06;;;;;;;2.83;2.00;;;;;;;18.14;99.66;102549.69;5094517;28;20031;-68
2023/08/19 07:46:32;;;;;;;;;;;;;;;18.22;98.50;102547.00;5094961;28;20032;-65
2023/08/19 07:49:01;;;;;;;5.45;2.00;;;;;;;18.14;98.49;102544.28;5093626;28;19915;-69
2023/08/19 07:51:27;;;;;;;4.55;1.65;;;;;;;17.98;97.94;102538.06;5094848;28;20347;-66
2023/08/19 07:53:52;;;;;;;2.53;1.73;;;;;;;17.83;98.52;102536.03;5099646;28;20043;-68
2023/08/19 07:56:21;;;;;;;2.42;1.50;;;;;;;17.71;99.70;102537.38;5094265;28;20040;-68
2023/08/19 07:58:46;;;;;;;;;;;;;;;17.72;99.64;102538.22;5094920;28;20375;-67
2023/08/19 08:01:11;;;;;;;2.63;1.35;;;;;;;17.63;100.00;102546.22;5094822;28;19908;-66
2023/08/19 08:03:38;;;;;;;4.40;1.60;;;;;;;17.57;100.00;102530.72;5095562;28;20044;-70
2023/08/19 08:06:04;;;;;;;1.92;1.50;;;;;;;17.54;100.00;102532.91;5094226;28;20467;-68
2023/08/19 08:08:29;;;;;;;6.45;1.70;;;;;;;17.64;100.00;102547.09;5094173;28;20039;-66
2023/08/19 08:10:55;;;;;;;3.13;2.00;;;;;;;17.69;100.00;102544.78;5093826;28;20032;-66
2023/08/19 08:13:21;;;;;;;2.20;1.10;;;;;;;17.73;99.54;102545.28;5096653;28;20031;-65
2023/08/19 08:15:49;;;;;;;4.40;1.60;;;;;;;17.62;99.58;102544.53;5094212;28;20036;-66
2023/08/19 08:18:15;;;;;;;3.15;1.80;;;;;;;17.31;100.00;102492.28;5092887;28;20127;-66
2023/08/19 08:20:40;;;;;;;2.85;1.38;;;;;;;17.59;99.87;102539.50;5094047;28;20494;-66
2023/08/19 08:23:06;;;;;;;2.92;1.63;;;;;;;17.64;99.91;102539.03;5093953;28;20024;-66
2023/08/19 08:25:31;;;;;;;1.83;1.52;;;;;;;17.62;99.45;102533.75;5093905;28;20391;-66
2023/08/19 08:27:57;;;;;;;5.18;2.97;;;;;;;17.69;99.64;102539.38;5094994;28;20088;-65
2023/08/19 08:30:22;;;;;;;1.90;1.63;;;;;;;17.70;99.41;102535.69;5094015;28;20115;-67
2023/08/19 08:32:48;;;;;;;2.85;2.10;;;;;;;17.79;99.29;102539.22;5075805;28;20027;-65
2023/08/19 08:35:14;;;;;;;3.55;1.50;;;;;;;17.76;99.70;102526.94;5088818;28;20111;-66
2023/08/19 08:37:39;;;;;;;5.00;1.58;;;;;;;17.94;99.56;102529.47;5081262;28;20423;-66
2023/08/19 08:40:05;;;;;;;2.00;1.67;;;;;;;17.89;99.39;102518.34;5073395;28;20028;-65
2023/08/19 08:42:31;;;;;;;5.72;1.60;;;;;;;17.98;99.05;102532.69;5082021;28;20039;-68
2023/08/19 08:44:59;;;;;;;6.50;1.73;;;;;;;17.99;98.40;102540.59;5092546;28;20028;-64
2023/08/19 08:47:26;;;;;;;6.45;1.52;;;;;;;17.89;98.60;102539.91;5093785;28;20020;-65
2023/08/19 08:49:53;;;;;;;2.85;2.08;;;;;;;17.75;98.93;102543.25;5092517;28;20467;-64
2023/08/19 08:52:20;;;;;;;4.72;1.92;;;;;;;17.59;100.00;102523.31;5094715;28;20036;-64
2023/08/19 08:54:51;;;;;;;3.33;1.60;;;;;;;17.57;100.00;102533.44;5093789;28;20024;-67
2023/08/19 08:57:16;;;;;;;2.28;1.70;;;;;;;17.50;100.00;102527.03;5094222;28;20114;-67
2023/08/19 09:02:30;;;;;;;2.38;1.55;;;;;;;17.74;100.00;102542.41;5094921;28;20031;-65
2023/08/19 09:04:59;;;;;;;6.90;1.52;;;;;;;17.75;100.00;102532.50;5093503;28;20040;-67
2023/08/19 09:07:30;;;;;;;7.10;1.95;;;;;;;17.79;100.00;102539.22;5093851;28;20048;-66
2023/08/19 09:09:58;;;;;;;7.32;2.28;;;;;;;17.74;100.00;102541.59;5090002;28;20039;-67
2023/08/19 09:12:26;;;;;;;4.15;2.05;;;;;;;17.73;100.00;102531.81;5085612;28;20024;-64
2023/08/19 09:14:57;;;;;;;2.13;1.70;;;;;;;17.53;100.00;102507.84;5091241;28;20344;-68
2023/08/19 09:17:23;;;;;;;3.25;1.30;;;;;;;17.61;100.00;102542.00;5094048;28;20024;-65
2023/08/19 09:19:51;;;;;;;2.33;1.42;;;;;;;17.50;100.00;102539.66;5108975;28;20066;-68
2023/08/19 09:22:37;;;;;;;;;;;;;;;17.56;100.00;102544.38;5104825;28;20023;-68
2023/08/19 09:25:30;;;;;;;2.30;1.20;;;;;;;17.36;100.00;102511.53;5079849;28;19912;-68
2023/08/19 09:27:55;;;;;;;1.63;1.50;;;;;;;17.55;100.00;102548.91;5089924;28;20033;-64
2023/08/19 09:30:21;;;;;;;2.28;1.52;;;;;;;17.49;100.00;102543.34;5094426;28;20016;-67
2023/08/19 09:32:46;;;;;;;2.75;1.85;;;;;;;17.40;100.00;102533.56;5090343;28;20021;-68
2023/08/19 09:35:12;;;;;;;1.92;1.40;;;;;;;17.41;100.00;102535.25;5091934;28;20420;-65
2023/08/19 09:37:40;;;;;;;2.40;1.10;;;;;;;17.28;100.00;102525.78;5080114;28;20021;-69
2023/08/19 09:40:18;;;;;;;4.38;2.08;;;;;;;17.37;100.00;102532.06;5076867;28;20029;-67
2023/08/19 09:42:48;;;;;;;3.55;2.15;;;;;;;17.39;100.00;102534.59;5077195;28;20034;-66
2023/08/19 09:45:22;;;;;;;3.10;1.60;;;;;;;17.39;100.00;102510.34;5077558;28;20021;-66
2023/08/19 09:47:48;;;;;;;4.25;1.60;;;;;;;17.39;100.00;102516.56;5074353;28;20028;-68
2023/08/19 09:50:15;;;;;;;4.85;1.70;;;;;;;17.39;100.00;102526.50;5071317;28;20055;-69
2023/08/19 09:52:40;;;;;;;5.78;1.77;;;;;;;17.33;100.00;102527.97;5078349;28;20081;-67
2023/08/19 09:55:06;;;;;;;3.08;1.63;;;;;;;17.28;100.00;102519.56;5072330;28;20032;-67
2023/08/19 09:57:35;;;;;;;1.73;1.35;;;;;;;17.31;100.00;102536.22;5071129;28;20032;-68
2023/08/19 10:00:05;;;;;;;4.03;1.90;;;;;;;17.36;100.00;102532.22;5072191;28;20024;-66
2023/08/19 10:02:38;;;;;;;3.35;1.55;;;;;;;17.41;100.00;102529.88;5073972;28;20043;-70
2023/08/19 10:05:07;;;;;;;2.05;1.15;;;;;;;17.43;100.00;102526.00;5072601;28;20140;-69
2023/08/19 10:07:37;;;;;;;2.92;1.42;;;;;;;17.47;100.00;102526.50;5072094;28;20076;-69
2023/08/19 10:10:04;;;;;;;3.70;1.85;;;;;;;17.45;100.00;102520.44;5071759;28;20557;-68
2023/08/19 10:12:38;;;;;;;3.75;1.60;;;;;;;17.49;100.00;102522.63;5074556;28;20036;-67
2023/08/19 10:15:07;;;;;;;2.00;1.63;;;;;;;17.34;100.00;102502.72;5073224;28;20601;-68
2023/08/19 10:17:34;;;;;;;2.20;1.17;;;;;;;17.39;100.00;102526.50;5072339;28;20480;-67
2023/08/19 10:20:05;;;;;;;6.05;2.17;;;;;;;17.26;100.00;102502.72;5073059;28;20090;-73
2023/08/19 10:22:33;;;;;;;2.22;1.98;;;;;;;17.36;100.00;102524.97;5071910;28;20017;-69
2023/08/19 10:25:00;;;;;;;2.53;1.60;;;;;;;17.27;100.00;102501.72;5071787;28;20055;-69
2023/08/19 10:27:26;;;;;;;4.68;2.08;;;;;;;17.35;100.00;102520.59;5071916;28;20024;-65
2023/08/19 10:29:57;;;;;;;3.33;2.00;;;;;;;17.26;100.00;102495.47;5071977;28;20054;-67
2023/08/19 10:32:25;;;;;;;2.95;1.63;;;;;;;17.31;100.00;102505.75;5070055;28;20115;-67
2023/08/19 10:34:50;;;;;;;5.43;1.95;;;;;;;17.34;100.00;102510.81;5075226;28;20028;-70
2023/08/19 10:37:16;;;;;;;2.15;1.45;;;;;;;17.39;100.00;102521.13;5075217;28;20079;-68
2023/08/19 10:39:46;;;;;;;6.13;2.30;;;;;;;17.39;100.00;102527.34;5075846;28;20027;-70
2023/08/19 10:42:13;;;;;;;2.58;1.60;;;;;;;17.39;100.00;102524.66;5075568;28;20059;-71
2023/08/19 10:44:39;;;;;;;2.58;2.00;;;;;;;17.35;100.00;102515.22;5075835;28;20028;-67
2023/08/19 10:47:15;;;;;;;4.53;1.75;;;;;;;17.31;100.00;102508.44;5075445;28;20086;-69
2023/08/19 10:49:40;;;;;;;3.92;1.70;;;;;;;17.40;100.00;102507.47;5075250;28;20025;-66
2023/08/19 10:52:06;;;;;;;4.20;1.70;;;;;;;17.36;100.00;102500.75;5076569;28;20047;-69
2023/08/19 10:54:44;;;;;;;2.28;1.42;;;;;;;17.42;100.00;102504.63;5077391;28;20028;-66
2023/08/19 10:57:24;;;;;;;3.05;1.70;;;;;;;17.45;100.00;102498.91;5075019;28;20036;-67
2023/08/19 11:00:11;;;;;;;2.95;1.83;;;;;;;17.59;100.00;102509.00;5076562;28;20036;-67
2023/08/19 11:02:36;;;;;;;4.32;2.45;;;;;;;17.56;100.00;102490.50;5095062;28;20024;-66
2023/08/19 11:05:03;;;;;;;2.28;1.90;;;;;;;17.46;100.00;102479.88;5095055;28;20020;-67
2023/08/19 11:07:29;;;;;;;2.45;2.03;;;;;;;17.50;100.00;102497.38;5095135;28;20090;-67
2023/08/19 11:09:54;;;;;;;3.20;1.85;;;;;;;17.09;100.00;102426.47;5094732;28;20057;-70
2023/08/19 11:12:21;;;;;;;2.42;1.85;;;;;;;17.55;100.00;102516.59;5095583;28;20047;-71
2023/08/19 11:14:48;;;;;;;3.17;2.22;;;;;;;17.46;100.00;102500.59;5095229;28;20024;-66
2023/08/19 11:17:15;;;;;;;4.22;2.08;;;;;;;17.39;100.00;102488.78;5095414;28;20032;-66
2023/08/19 11:19:41;;;;;;;4.07;2.00;;;;;;;17.47;100.00;102511.19;5103234;28;20024;-68
2023/08/19 11:22:11;;;;;;;3.08;1.88;;;;;;;17.39;100.00;102492.34;5095120;28;20038;-68